Terminal Aerodrome Forecast
Issued by NWS

Home | Current Version | Previous Version | Text Only | Print | Product List | Glossary On
Versions: 1 2 3 4 5 6 7 8 9 10 11 12 13
000
FTUS42 KMLB 042333
TAFFPR
TAF
KFPR 042333Z 0500/0524 15008KT P6SM SCT035
     FM050800 14003KT P6SM VCSH SCT006 BKN010
     FM051300 16009KT P6SM VCSH SCT010 BKN025=

USA.gov is the U.S. government's official web portal to all federal, state and local government web resources and services.